<?xml version="1.0" encoding="UTF-8" standalone="no" ?>
<gpx xmlns="http://www.topografix.com/GPX/1/1" xmlns:xsi="http://www.w3.org/2001/XMLSchema-instance" xsi:schemaLocation="http://www.topografix.com/GPX/1/1 http://www.topografix.com/GPX/1/1/gpx.xsd" version="1.1" creator="VisuGPX - https://www.visugpx.com">
  <metadata>
    <name>Descente de la piste 2000 - Grd Bornand</name>
    <desc><![CDATA[Descente de la piste 2000 sur le domaine du Grand Bornand (départ de mont Lacha)]]></desc>
  </metadata>
  <trk>
    <name><![CDATA[LOG 11/02/11 13:32]]></name>
    <desc><![CDATA[Max. speed: 45.2km/h, avg. speed: 15.7km/h, distance: 2.281km, up: 1m, down: 577m, total time: 00:08:44]]></desc>
    <trkseg>
      <trkpt lat="45.95988" lon="6.47638">
        <ele>2031.9</ele>
        <time>2011-02-11T10:05:03Z</time>
      </trkpt>
      <trkpt lat="45.95988" lon="6.47638">
        <ele>2031.9</ele>
        <time>2011-02-11T10:05:04Z</time>
      </trkpt>
      <trkpt lat="45.95987" lon="6.47638">
        <ele>2030.294</ele>
        <time>2011-02-11T10:05:06Z</time>
      </trkpt>
      <trkpt lat="45.95987" lon="6.47639">
        <ele>2030.21</ele>
        <time>2011-02-11T10:05:07Z</time>
      </trkpt>
      <trkpt lat="45.95987" lon="6.47639">
        <ele>2030.165</ele>
        <time>2011-02-11T10:05:08Z</time>
      </trkpt>
      <trkpt lat="45.95987" lon="6.47639">
        <ele>2030.342</ele>
        <time>2011-02-11T10:05:10Z</time>
      </trkpt>
      <trkpt lat="45.95987" lon="6.47639">
        <ele>2030.419</ele>
        <time>2011-02-11T10:05:19Z</time>
      </trkpt>
      <trkpt lat="45.95987" lon="6.47639">
        <ele>2030.209</ele>
        <time>2011-02-11T10:05:20Z</time>
      </trkpt>
      <trkpt lat="45.95987" lon="6.47639">
        <ele>2030.471</ele>
        <time>2011-02-11T10:05:21Z</time>
      </trkpt>
      <trkpt lat="45.95987" lon="6.47638">
        <ele>2030.599</ele>
        <time>2011-02-11T10:05:23Z</time>
      </trkpt>
      <trkpt lat="45.95987" lon="6.47638">
        <ele>2030.647</ele>
        <time>2011-02-11T10:05:24Z</time>
      </trkpt>
      <trkpt lat="45.95987" lon="6.47638">
        <ele>2030.606</ele>
        <time>2011-02-11T10:05:25Z</time>
      </trkpt>
      <trkpt lat="45.95987" lon="6.47638">
        <ele>2030.468</ele>
        <time>2011-02-11T10:05:27Z</time>
      </trkpt>
      <trkpt lat="45.95987" lon="6.47638">
        <ele>2030.4</ele>
        <time>2011-02-11T10:05:29Z</time>
      </trkpt>
      <trkpt lat="45.95987" lon="6.47638">
        <ele>2030.4</ele>
        <time>2011-02-11T10:05:30Z</time>
      </trkpt>
      <trkpt lat="45.95987" lon="6.47638">
        <ele>2030.4</ele>
        <time>2011-02-11T10:05:31Z</time>
      </trkpt>
      <trkpt lat="45.95987" lon="6.47638">
        <ele>2030.4</ele>
        <time>2011-02-11T10:05:33Z</time>
      </trkpt>
      <trkpt lat="45.95987" lon="6.47638">
        <ele>2030.42</ele>
        <time>2011-02-11T10:05:35Z</time>
      </trkpt>
      <trkpt lat="45.95987" lon="6.47638">
        <ele>2030.44</ele>
        <time>2011-02-11T10:05:37Z</time>
      </trkpt>
      <trkpt lat="45.95987" lon="6.47638">
        <ele>2030.45</ele>
        <time>2011-02-11T10:05:38Z</time>
      </trkpt>
      <trkpt lat="45.95987" lon="6.47638">
        <ele>2030.46</ele>
        <time>2011-02-11T10:05:39Z</time>
      </trkpt>
      <trkpt lat="45.95987" lon="6.47638">
        <ele>2030.48</ele>
        <time>2011-02-11T10:05:41Z</time>
      </trkpt>
      <trkpt lat="45.95987" lon="6.47638">
        <ele>2030.5</ele>
        <time>2011-02-11T10:05:43Z</time>
      </trkpt>
      <trkpt lat="45.95987" lon="6.47638">
        <ele>2030.5</ele>
        <time>2011-02-11T10:05:45Z</time>
      </trkpt>
      <trkpt lat="45.95987" lon="6.47638">
        <ele>2030.5</ele>
        <time>2011-02-11T10:05:47Z</time>
      </trkpt>
      <trkpt lat="45.95987" lon="6.47638">
        <ele>2030.481</ele>
        <time>2011-02-11T10:05:49Z</time>
      </trkpt>
      <trkpt lat="45.95988" lon="6.47634">
        <ele>2030.404</ele>
        <time>2011-02-11T10:05:51Z</time>
      </trkpt>
      <trkpt lat="45.95988" lon="6.47628">
        <ele>2030.413</ele>
        <time>2011-02-11T10:05:53Z</time>
      </trkpt>
      <trkpt lat="45.95989" lon="6.4762">
        <ele>2030.411</ele>
        <time>2011-02-11T10:05:55Z</time>
      </trkpt>
      <trkpt lat="45.95991" lon="6.47615">
        <ele>2030.37</ele>
        <time>2011-02-11T10:05:57Z</time>
      </trkpt>
      <trkpt lat="45.95992" lon="6.47613">
        <ele>2030.328</ele>
        <time>2011-02-11T10:05:58Z</time>
      </trkpt>
      <trkpt lat="45.95992" lon="6.47613">
        <ele>2030.286</ele>
        <time>2011-02-11T10:05:59Z</time>
      </trkpt>
      <trkpt lat="45.95994" lon="6.47614">
        <ele>2030.325</ele>
        <time>2011-02-11T10:07:27Z</time>
      </trkpt>
      <trkpt lat="45.95994" lon="6.47615">
        <ele>2030.277</ele>
        <time>2011-02-11T10:07:29Z</time>
      </trkpt>
      <trkpt lat="45.96002" lon="6.47608">
        <ele>2028.782</ele>
        <time>2011-02-11T10:07:30Z</time>
      </trkpt>
      <trkpt lat="45.9601" lon="6.47602">
        <ele>2027.757</ele>
        <time>2011-02-11T10:07:32Z</time>
      </trkpt>
      <trkpt lat="45.96015" lon="6.47598">
        <ele>2026.343</ele>
        <time>2011-02-11T10:07:34Z</time>
      </trkpt>
      <trkpt lat="45.96016" lon="6.47598">
        <ele>2024.394</ele>
        <time>2011-02-11T10:07:36Z</time>
      </trkpt>
      <trkpt lat="45.96017" lon="6.47597">
        <ele>2023.379</ele>
        <time>2011-02-11T10:07:37Z</time>
      </trkpt>
      <trkpt lat="45.96018" lon="6.47595">
        <ele>2022.08</ele>
        <time>2011-02-11T10:07:39Z</time>
      </trkpt>
      <trkpt lat="45.96018" lon="6.47594">
        <ele>2021.81</ele>
        <time>2011-02-11T10:07:40Z</time>
      </trkpt>
      <trkpt lat="45.9602" lon="6.47592">
        <ele>2020.39</ele>
        <time>2011-02-11T10:07:42Z</time>
      </trkpt>
      <trkpt lat="45.96021" lon="6.47591">
        <ele>2019.85</ele>
        <time>2011-02-11T10:07:43Z</time>
      </trkpt>
      <trkpt lat="45.96022" lon="6.47591">
        <ele>2019.34</ele>
        <time>2011-02-11T10:07:44Z</time>
      </trkpt>
      <trkpt lat="45.96023" lon="6.47591">
        <ele>2019.04</ele>
        <time>2011-02-11T10:07:45Z</time>
      </trkpt>
      <trkpt lat="45.96024" lon="6.47591">
        <ele>2018.76</ele>
        <time>2011-02-11T10:07:46Z</time>
      </trkpt>
      <trkpt lat="45.96026" lon="6.4759">
        <ele>2018.26</ele>
        <time>2011-02-11T10:07:48Z</time>
      </trkpt>
      <trkpt lat="45.96027" lon="6.47589">
        <ele>2018.06</ele>
        <time>2011-02-11T10:07:49Z</time>
      </trkpt>
      <trkpt lat="45.96028" lon="6.47588">
        <ele>2017.51</ele>
        <time>2011-02-11T10:07:51Z</time>
      </trkpt>
      <trkpt lat="45.96031" lon="6.47587">
        <ele>2017.327</ele>
        <time>2011-02-11T10:07:53Z</time>
      </trkpt>
      <trkpt lat="45.96034" lon="6.47588">
        <ele>2017.149</ele>
        <time>2011-02-11T10:07:55Z</time>
      </trkpt>
      <trkpt lat="45.96036" lon="6.47589">
        <ele>2016.994</ele>
        <time>2011-02-11T10:07:56Z</time>
      </trkpt>
      <trkpt lat="45.96039" lon="6.47591">
        <ele>2016.289</ele>
        <time>2011-02-11T10:07:58Z</time>
      </trkpt>
      <trkpt lat="45.9604" lon="6.47591">
        <ele>2015.892</ele>
        <time>2011-02-11T10:07:59Z</time>
      </trkpt>
      <trkpt lat="45.96042" lon="6.4759">
        <ele>2015.52</ele>
        <time>2011-02-11T10:08:01Z</time>
      </trkpt>
      <trkpt lat="45.96043" lon="6.47589">
        <ele>2015.349</ele>
        <time>2011-02-11T10:08:02Z</time>
      </trkpt>
      <trkpt lat="45.96045" lon="6.47588">
        <ele>2015.204</ele>
        <time>2011-02-11T10:08:04Z</time>
      </trkpt>
      <trkpt lat="45.96049" lon="6.47588">
        <ele>2015.146</ele>
        <time>2011-02-11T10:08:06Z</time>
      </trkpt>
      <trkpt lat="45.96051" lon="6.47588">
        <ele>2015.25</ele>
        <time>2011-02-11T10:08:07Z</time>
      </trkpt>
      <trkpt lat="45.96052" lon="6.47588">
        <ele>2015.433</ele>
        <time>2011-02-11T10:08:09Z</time>
      </trkpt>
      <trkpt lat="45.96056" lon="6.47588">
        <ele>2015.726</ele>
        <time>2011-02-11T10:08:10Z</time>
      </trkpt>
      <trkpt lat="45.96058" lon="6.47588">
        <ele>2015.65</ele>
        <time>2011-02-11T10:08:11Z</time>
      </trkpt>
      <trkpt lat="45.9606" lon="6.47587">
        <ele>2015.399</ele>
        <time>2011-02-11T10:08:12Z</time>
      </trkpt>
      <trkpt lat="45.96065" lon="6.47587">
        <ele>2014.287</ele>
        <time>2011-02-11T10:08:14Z</time>
      </trkpt>
      <trkpt lat="45.96068" lon="6.47588">
        <ele>2013.481</ele>
        <time>2011-02-11T10:08:15Z</time>
      </trkpt>
      <trkpt lat="45.96076" lon="6.4759">
        <ele>2011.205</ele>
        <time>2011-02-11T10:08:16Z</time>
      </trkpt>
      <trkpt lat="45.96086" lon="6.47593">
        <ele>2008.519</ele>
        <time>2011-02-11T10:08:18Z</time>
      </trkpt>
      <trkpt lat="45.96091" lon="6.47597">
        <ele>2007.26</ele>
        <time>2011-02-11T10:08:19Z</time>
      </trkpt>
      <trkpt lat="45.96096" lon="6.476">
        <ele>2005.96</ele>
        <time>2011-02-11T10:08:20Z</time>
      </trkpt>
      <trkpt lat="45.96106" lon="6.4761">
        <ele>2003.58</ele>
        <time>2011-02-11T10:08:22Z</time>
      </trkpt>
      <trkpt lat="45.96111" lon="6.47614">
        <ele>2002.48</ele>
        <time>2011-02-11T10:08:23Z</time>
      </trkpt>
      <trkpt lat="45.96117" lon="6.47623">
        <ele>2000.59</ele>
        <time>2011-02-11T10:08:25Z</time>
      </trkpt>
      <trkpt lat="45.9612" lon="6.47627">
        <ele>1999.94</ele>
        <time>2011-02-11T10:08:26Z</time>
      </trkpt>
      <trkpt lat="45.96122" lon="6.47633">
        <ele>1999.25</ele>
        <time>2011-02-11T10:08:27Z</time>
      </trkpt>
      <trkpt lat="45.96124" lon="6.47646">
        <ele>1997.1</ele>
        <time>2011-02-11T10:08:29Z</time>
      </trkpt>
      <trkpt lat="45.96124" lon="6.47658">
        <ele>1994.72</ele>
        <time>2011-02-11T10:08:31Z</time>
      </trkpt>
      <trkpt lat="45.96123" lon="6.47662">
        <ele>1993.53</ele>
        <time>2011-02-11T10:08:32Z</time>
      </trkpt>
      <trkpt lat="45.96118" lon="6.47669">
        <ele>1991.11</ele>
        <time>2011-02-11T10:08:34Z</time>
      </trkpt>
      <trkpt lat="45.96115" lon="6.47671">
        <ele>1989.961</ele>
        <time>2011-02-11T10:08:35Z</time>
      </trkpt>
      <trkpt lat="45.96112" lon="6.47673">
        <ele>1988.983</ele>
        <time>2011-02-11T10:08:36Z</time>
      </trkpt>
      <trkpt lat="45.96109" lon="6.47675">
        <ele>1988.019</ele>
        <time>2011-02-11T10:08:37Z</time>
      </trkpt>
      <trkpt lat="45.96107" lon="6.47679">
        <ele>1987.214</ele>
        <time>2011-02-11T10:08:39Z</time>
      </trkpt>
      <trkpt lat="45.96102" lon="6.47689">
        <ele>1985.657</ele>
        <time>2011-02-11T10:08:40Z</time>
      </trkpt>
      <trkpt lat="45.961" lon="6.47701">
        <ele>1983.724</ele>
        <time>2011-02-11T10:08:42Z</time>
      </trkpt>
      <trkpt lat="45.96101" lon="6.47713">
        <ele>1981.038</ele>
        <time>2011-02-11T10:08:43Z</time>
      </trkpt>
      <trkpt lat="45.96101" lon="6.4772">
        <ele>1979.528</ele>
        <time>2011-02-11T10:08:45Z</time>
      </trkpt>
      <trkpt lat="45.96103" lon="6.47731">
        <ele>1977.296</ele>
        <time>2011-02-11T10:08:46Z</time>
      </trkpt>
      <trkpt lat="45.96107" lon="6.4774">
        <ele>1975.297</ele>
        <time>2011-02-11T10:08:47Z</time>
      </trkpt>
      <trkpt lat="45.96109" lon="6.47745">
        <ele>1973.922</ele>
        <time>2011-02-11T10:08:48Z</time>
      </trkpt>
      <trkpt lat="45.96114" lon="6.47755">
        <ele>1971.865</ele>
        <time>2011-02-11T10:08:50Z</time>
      </trkpt>
      <trkpt lat="45.96121" lon="6.47764">
        <ele>1970.417</ele>
        <time>2011-02-11T10:08:52Z</time>
      </trkpt>
      <trkpt lat="45.96124" lon="6.47767">
        <ele>1969.695</ele>
        <time>2011-02-11T10:08:53Z</time>
      </trkpt>
      <trkpt lat="45.9613" lon="6.47768">
        <ele>1967.817</ele>
        <time>2011-02-11T10:08:55Z</time>
      </trkpt>
      <trkpt lat="45.96137" lon="6.4777">
        <ele>1966.005</ele>
        <time>2011-02-11T10:08:57Z</time>
      </trkpt>
      <trkpt lat="45.96141" lon="6.47772">
        <ele>1965.369</ele>
        <time>2011-02-11T10:08:59Z</time>
      </trkpt>
      <trkpt lat="45.96147" lon="6.47779">
        <ele>1964.085</ele>
        <time>2011-02-11T10:09:00Z</time>
      </trkpt>
      <trkpt lat="45.96155" lon="6.47788">
        <ele>1962.727</ele>
        <time>2011-02-11T10:09:01Z</time>
      </trkpt>
      <trkpt lat="45.96159" lon="6.47794">
        <ele>1962.01</ele>
        <time>2011-02-11T10:09:02Z</time>
      </trkpt>
      <trkpt lat="45.96165" lon="6.47801">
        <ele>1961.279</ele>
        <time>2011-02-11T10:09:04Z</time>
      </trkpt>
      <trkpt lat="45.96173" lon="6.4781">
        <ele>1959.762</ele>
        <time>2011-02-11T10:09:05Z</time>
      </trkpt>
      <trkpt lat="45.96178" lon="6.47812">
        <ele>1958.433</ele>
        <time>2011-02-11T10:09:06Z</time>
      </trkpt>
      <trkpt lat="45.96186" lon="6.47809">
        <ele>1954.32</ele>
        <time>2011-02-11T10:09:07Z</time>
      </trkpt>
      <trkpt lat="45.96191" lon="6.47807">
        <ele>1952.58</ele>
        <time>2011-02-11T10:09:08Z</time>
      </trkpt>
      <trkpt lat="45.96196" lon="6.47805">
        <ele>1950.78</ele>
        <time>2011-02-11T10:09:10Z</time>
      </trkpt>
      <trkpt lat="45.96204" lon="6.47803">
        <ele>1947.53</ele>
        <time>2011-02-11T10:09:11Z</time>
      </trkpt>
      <trkpt lat="45.96211" lon="6.47803">
        <ele>1944.09</ele>
        <time>2011-02-11T10:09:12Z</time>
      </trkpt>
      <trkpt lat="45.96217" lon="6.47806">
        <ele>1940.48</ele>
        <time>2011-02-11T10:09:14Z</time>
      </trkpt>
      <trkpt lat="45.96221" lon="6.47808">
        <ele>1938.85</ele>
        <time>2011-02-11T10:09:15Z</time>
      </trkpt>
      <trkpt lat="45.96227" lon="6.47815">
        <ele>1935.4</ele>
        <time>2011-02-11T10:09:17Z</time>
      </trkpt>
      <trkpt lat="45.9623" lon="6.47817">
        <ele>1933.66</ele>
        <time>2011-02-11T10:09:19Z</time>
      </trkpt>
      <trkpt lat="45.96234" lon="6.47821">
        <ele>1930.11</ele>
        <time>2011-02-11T10:09:20Z</time>
      </trkpt>
      <trkpt lat="45.96236" lon="6.47825">
        <ele>1926.67</ele>
        <time>2011-02-11T10:09:21Z</time>
      </trkpt>
      <trkpt lat="45.96237" lon="6.47828">
        <ele>1925.11</ele>
        <time>2011-02-11T10:09:22Z</time>
      </trkpt>
      <trkpt lat="45.96238" lon="6.47832">
        <ele>1923.52</ele>
        <time>2011-02-11T10:09:24Z</time>
      </trkpt>
      <trkpt lat="45.9624" lon="6.47838">
        <ele>1920.73</ele>
        <time>2011-02-11T10:09:25Z</time>
      </trkpt>
      <trkpt lat="45.96242" lon="6.47841">
        <ele>1919.56</ele>
        <time>2011-02-11T10:09:26Z</time>
      </trkpt>
      <trkpt lat="45.96246" lon="6.47847">
        <ele>1917.25</ele>
        <time>2011-02-11T10:09:28Z</time>
      </trkpt>
      <trkpt lat="45.96248" lon="6.4785">
        <ele>1916.06</ele>
        <time>2011-02-11T10:09:29Z</time>
      </trkpt>
      <trkpt lat="45.96252" lon="6.47855">
        <ele>1912.99</ele>
        <time>2011-02-11T10:09:30Z</time>
      </trkpt>
      <trkpt lat="45.96257" lon="6.47859">
        <ele>1909.45</ele>
        <time>2011-02-11T10:09:32Z</time>
      </trkpt>
      <trkpt lat="45.96259" lon="6.47861">
        <ele>1907.56</ele>
        <time>2011-02-11T10:09:34Z</time>
      </trkpt>
      <trkpt lat="45.96263" lon="6.47867">
        <ele>1904.1</ele>
        <time>2011-02-11T10:09:35Z</time>
      </trkpt>
      <trkpt lat="45.96265" lon="6.47869">
        <ele>1902.3</ele>
        <time>2011-02-11T10:09:36Z</time>
      </trkpt>
      <trkpt lat="45.96269" lon="6.47874">
        <ele>1898.81</ele>
        <time>2011-02-11T10:09:37Z</time>
      </trkpt>
      <trkpt lat="45.96272" lon="6.47877">
        <ele>1897.13</ele>
        <time>2011-02-11T10:09:38Z</time>
      </trkpt>
      <trkpt lat="45.96277" lon="6.47886">
        <ele>1894.15</ele>
        <time>2011-02-11T10:09:41Z</time>
      </trkpt>
      <trkpt lat="45.9628" lon="6.47897">
        <ele>1891.6</ele>
        <time>2011-02-11T10:09:42Z</time>
      </trkpt>
      <trkpt lat="45.96282" lon="6.47902">
        <ele>1890.25</ele>
        <time>2011-02-11T10:09:43Z</time>
      </trkpt>
      <trkpt lat="45.96284" lon="6.47907">
        <ele>1888.81</ele>
        <time>2011-02-11T10:09:44Z</time>
      </trkpt>
      <trkpt lat="45.9629" lon="6.47919">
        <ele>1885.54</ele>
        <time>2011-02-11T10:09:45Z</time>
      </trkpt>
      <trkpt lat="45.96293" lon="6.47925">
        <ele>1883.74</ele>
        <time>2011-02-11T10:09:47Z</time>
      </trkpt>
      <trkpt lat="45.96299" lon="6.47935">
        <ele>1880.94</ele>
        <time>2011-02-11T10:09:48Z</time>
      </trkpt>
      <trkpt lat="45.96302" lon="6.4794">
        <ele>1879.51</ele>
        <time>2011-02-11T10:09:49Z</time>
      </trkpt>
      <trkpt lat="45.96309" lon="6.47948">
        <ele>1876.05</ele>
        <time>2011-02-11T10:09:50Z</time>
      </trkpt>
      <trkpt lat="45.96313" lon="6.47953">
        <ele>1874.3</ele>
        <time>2011-02-11T10:09:51Z</time>
      </trkpt>
      <trkpt lat="45.96316" lon="6.47958">
        <ele>1872.7</ele>
        <time>2011-02-11T10:09:53Z</time>
      </trkpt>
      <trkpt lat="45.96321" lon="6.47965">
        <ele>1870.03</ele>
        <time>2011-02-11T10:09:54Z</time>
      </trkpt>
      <trkpt lat="45.96326" lon="6.47974">
        <ele>1867.41</ele>
        <time>2011-02-11T10:09:56Z</time>
      </trkpt>
      <trkpt lat="45.9633" lon="6.47981">
        <ele>1865.06</ele>
        <time>2011-02-11T10:09:57Z</time>
      </trkpt>
      <trkpt lat="45.96338" lon="6.47988">
        <ele>1862.14</ele>
        <time>2011-02-11T10:09:58Z</time>
      </trkpt>
      <trkpt lat="45.96342" lon="6.47991">
        <ele>1860.32</ele>
        <time>2011-02-11T10:09:59Z</time>
      </trkpt>
      <trkpt lat="45.96354" lon="6.47997">
        <ele>1856.39</ele>
        <time>2011-02-11T10:10:02Z</time>
      </trkpt>
      <trkpt lat="45.96367" lon="6.48007">
        <ele>1850.84</ele>
        <time>2011-02-11T10:10:03Z</time>
      </trkpt>
      <trkpt lat="45.96378" lon="6.48014">
        <ele>1845.646</ele>
        <time>2011-02-11T10:10:05Z</time>
      </trkpt>
      <trkpt lat="45.96388" lon="6.48015">
        <ele>1842.855</ele>
        <time>2011-02-11T10:10:07Z</time>
      </trkpt>
      <trkpt lat="45.9641" lon="6.48015">
        <ele>1836.446</ele>
        <time>2011-02-11T10:10:08Z</time>
      </trkpt>
      <trkpt lat="45.96423" lon="6.48016">
        <ele>1832.303</ele>
        <time>2011-02-11T10:10:10Z</time>
      </trkpt>
      <trkpt lat="45.96438" lon="6.48019">
        <ele>1828.492</ele>
        <time>2011-02-11T10:10:12Z</time>
      </trkpt>
      <trkpt lat="45.96445" lon="6.4802">
        <ele>1826.84</ele>
        <time>2011-02-11T10:10:14Z</time>
      </trkpt>
      <trkpt lat="45.96457" lon="6.48022">
        <ele>1822.92</ele>
        <time>2011-02-11T10:10:15Z</time>
      </trkpt>
      <trkpt lat="45.96468" lon="6.48024">
        <ele>1819</ele>
        <time>2011-02-11T10:10:16Z</time>
      </trkpt>
      <trkpt lat="45.96479" lon="6.48027">
        <ele>1815.79</ele>
        <time>2011-02-11T10:10:19Z</time>
      </trkpt>
      <trkpt lat="45.96494" lon="6.48033">
        <ele>1811.04</ele>
        <time>2011-02-11T10:10:20Z</time>
      </trkpt>
      <trkpt lat="45.96504" lon="6.48039">
        <ele>1806.88</ele>
        <time>2011-02-11T10:10:23Z</time>
      </trkpt>
      <trkpt lat="45.96513" lon="6.48046">
        <ele>1802.71</ele>
        <time>2011-02-11T10:10:24Z</time>
      </trkpt>
      <trkpt lat="45.9652" lon="6.48053">
        <ele>1798.54</ele>
        <time>2011-02-11T10:10:25Z</time>
      </trkpt>
      <trkpt lat="45.96523" lon="6.48056">
        <ele>1796.25</ele>
        <time>2011-02-11T10:10:26Z</time>
      </trkpt>
      <trkpt lat="45.96531" lon="6.48064">
        <ele>1791.66</ele>
        <time>2011-02-11T10:10:28Z</time>
      </trkpt>
      <trkpt lat="45.96538" lon="6.48068">
        <ele>1788.13</ele>
        <time>2011-02-11T10:10:30Z</time>
      </trkpt>
      <trkpt lat="45.96543" lon="6.4807">
        <ele>1786.3</ele>
        <time>2011-02-11T10:10:31Z</time>
      </trkpt>
      <trkpt lat="45.96552" lon="6.48075">
        <ele>1782.45</ele>
        <time>2011-02-11T10:10:34Z</time>
      </trkpt>
      <trkpt lat="45.96563" lon="6.4808">
        <ele>1779.52</ele>
        <time>2011-02-11T10:10:35Z</time>
      </trkpt>
      <trkpt lat="45.96575" lon="6.48089">
        <ele>1776.2</ele>
        <time>2011-02-11T10:10:36Z</time>
      </trkpt>
      <trkpt lat="45.96581" lon="6.48095">
        <ele>1774.61</ele>
        <time>2011-02-11T10:10:37Z</time>
      </trkpt>
      <trkpt lat="45.96589" lon="6.48101">
        <ele>1772.98</ele>
        <time>2011-02-11T10:10:38Z</time>
      </trkpt>
      <trkpt lat="45.96602" lon="6.48113">
        <ele>1768.879</ele>
        <time>2011-02-11T10:10:40Z</time>
      </trkpt>
      <trkpt lat="45.96608" lon="6.48118">
        <ele>1766.597</ele>
        <time>2011-02-11T10:10:41Z</time>
      </trkpt>
      <trkpt lat="45.96621" lon="6.48129">
        <ele>1762.137</ele>
        <time>2011-02-11T10:10:43Z</time>
      </trkpt>
      <trkpt lat="45.96636" lon="6.48145">
        <ele>1758.138</ele>
        <time>2011-02-11T10:10:46Z</time>
      </trkpt>
      <trkpt lat="45.96656" lon="6.48168">
        <ele>1753.177</ele>
        <time>2011-02-11T10:10:47Z</time>
      </trkpt>
      <trkpt lat="45.96662" lon="6.48175">
        <ele>1751.601</ele>
        <time>2011-02-11T10:10:48Z</time>
      </trkpt>
      <trkpt lat="45.96675" lon="6.48195">
        <ele>1747.641</ele>
        <time>2011-02-11T10:10:50Z</time>
      </trkpt>
      <trkpt lat="45.96682" lon="6.48205">
        <ele>1745.666</ele>
        <time>2011-02-11T10:10:51Z</time>
      </trkpt>
      <trkpt lat="45.96696" lon="6.48221">
        <ele>1741.707</ele>
        <time>2011-02-11T10:10:53Z</time>
      </trkpt>
      <trkpt lat="45.96713" lon="6.48235">
        <ele>1737.329</ele>
        <time>2011-02-11T10:10:55Z</time>
      </trkpt>
      <trkpt lat="45.96724" lon="6.48246">
        <ele>1733.075</ele>
        <time>2011-02-11T10:10:57Z</time>
      </trkpt>
      <trkpt lat="45.96732" lon="6.48257">
        <ele>1729.42</ele>
        <time>2011-02-11T10:10:59Z</time>
      </trkpt>
      <trkpt lat="45.96739" lon="6.48269">
        <ele>1725.87</ele>
        <time>2011-02-11T10:11:01Z</time>
      </trkpt>
      <trkpt lat="45.96744" lon="6.48274">
        <ele>1723.9</ele>
        <time>2011-02-11T10:11:02Z</time>
      </trkpt>
      <trkpt lat="45.96754" lon="6.48286">
        <ele>1720.06</ele>
        <time>2011-02-11T10:11:04Z</time>
      </trkpt>
      <trkpt lat="45.96759" lon="6.48292">
        <ele>1718.3</ele>
        <time>2011-02-11T10:11:05Z</time>
      </trkpt>
      <trkpt lat="45.96769" lon="6.48308">
        <ele>1715.258</ele>
        <time>2011-02-11T10:11:07Z</time>
      </trkpt>
      <trkpt lat="45.96775" lon="6.48316">
        <ele>1713.759</ele>
        <time>2011-02-11T10:11:08Z</time>
      </trkpt>
      <trkpt lat="45.96781" lon="6.48325">
        <ele>1712.223</ele>
        <time>2011-02-11T10:11:09Z</time>
      </trkpt>
      <trkpt lat="45.96787" lon="6.48335">
        <ele>1710.695</ele>
        <time>2011-02-11T10:11:10Z</time>
      </trkpt>
      <trkpt lat="45.96793" lon="6.48344">
        <ele>1709.046</ele>
        <time>2011-02-11T10:11:11Z</time>
      </trkpt>
      <trkpt lat="45.968" lon="6.48352">
        <ele>1707.635</ele>
        <time>2011-02-11T10:11:12Z</time>
      </trkpt>
      <trkpt lat="45.96814" lon="6.48366">
        <ele>1704.828</ele>
        <time>2011-02-11T10:11:14Z</time>
      </trkpt>
      <trkpt lat="45.9682" lon="6.48373">
        <ele>1703.143</ele>
        <time>2011-02-11T10:11:15Z</time>
      </trkpt>
      <trkpt lat="45.96833" lon="6.48386">
        <ele>1699.61</ele>
        <time>2011-02-11T10:11:17Z</time>
      </trkpt>
      <trkpt lat="45.96845" lon="6.48399">
        <ele>1696.38</ele>
        <time>2011-02-11T10:11:19Z</time>
      </trkpt>
      <trkpt lat="45.96851" lon="6.48404">
        <ele>1694.85</ele>
        <time>2011-02-11T10:11:20Z</time>
      </trkpt>
      <trkpt lat="45.96861" lon="6.48412">
        <ele>1691.6</ele>
        <time>2011-02-11T10:11:23Z</time>
      </trkpt>
      <trkpt lat="45.9687" lon="6.48416">
        <ele>1688.88</ele>
        <time>2011-02-11T10:11:24Z</time>
      </trkpt>
      <trkpt lat="45.96878" lon="6.48418">
        <ele>1686.45</ele>
        <time>2011-02-11T10:11:25Z</time>
      </trkpt>
      <trkpt lat="45.96882" lon="6.48418">
        <ele>1685.47</ele>
        <time>2011-02-11T10:11:26Z</time>
      </trkpt>
      <trkpt lat="45.96886" lon="6.48417">
        <ele>1684.49</ele>
        <time>2011-02-11T10:11:27Z</time>
      </trkpt>
      <trkpt lat="45.9689" lon="6.48414">
        <ele>1683.497</ele>
        <time>2011-02-11T10:11:28Z</time>
      </trkpt>
      <trkpt lat="45.96897" lon="6.48405">
        <ele>1681.43</ele>
        <time>2011-02-11T10:11:30Z</time>
      </trkpt>
      <trkpt lat="45.96901" lon="6.484">
        <ele>1680.381</ele>
        <time>2011-02-11T10:11:31Z</time>
      </trkpt>
      <trkpt lat="45.96907" lon="6.48386">
        <ele>1678.048</ele>
        <time>2011-02-11T10:11:33Z</time>
      </trkpt>
      <trkpt lat="45.96915" lon="6.48371">
        <ele>1675.767</ele>
        <time>2011-02-11T10:11:35Z</time>
      </trkpt>
      <trkpt lat="45.96926" lon="6.48357">
        <ele>1673.546</ele>
        <time>2011-02-11T10:11:37Z</time>
      </trkpt>
      <trkpt lat="45.9693" lon="6.4835">
        <ele>1672.42</ele>
        <time>2011-02-11T10:11:39Z</time>
      </trkpt>
      <trkpt lat="45.96937" lon="6.48337">
        <ele>1670.15</ele>
        <time>2011-02-11T10:11:40Z</time>
      </trkpt>
      <trkpt lat="45.96946" lon="6.48325">
        <ele>1667.3</ele>
        <time>2011-02-11T10:11:42Z</time>
      </trkpt>
      <trkpt lat="45.9695" lon="6.48318">
        <ele>1665.78</ele>
        <time>2011-02-11T10:11:43Z</time>
      </trkpt>
      <trkpt lat="45.96956" lon="6.4831">
        <ele>1664.113</ele>
        <time>2011-02-11T10:11:44Z</time>
      </trkpt>
      <trkpt lat="45.96964" lon="6.48297">
        <ele>1660.117</ele>
        <time>2011-02-11T10:11:46Z</time>
      </trkpt>
      <trkpt lat="45.96973" lon="6.48281">
        <ele>1655.542</ele>
        <time>2011-02-11T10:11:48Z</time>
      </trkpt>
      <trkpt lat="45.96986" lon="6.48264">
        <ele>1650.069</ele>
        <time>2011-02-11T10:11:50Z</time>
      </trkpt>
      <trkpt lat="45.96995" lon="6.48256">
        <ele>1644.209</ele>
        <time>2011-02-11T10:11:51Z</time>
      </trkpt>
      <trkpt lat="45.97007" lon="6.48252">
        <ele>1638.709</ele>
        <time>2011-02-11T10:11:53Z</time>
      </trkpt>
      <trkpt lat="45.97013" lon="6.48252">
        <ele>1636.602</ele>
        <time>2011-02-11T10:11:55Z</time>
      </trkpt>
      <trkpt lat="45.97022" lon="6.48255">
        <ele>1633.44</ele>
        <time>2011-02-11T10:11:56Z</time>
      </trkpt>
      <trkpt lat="45.9703" lon="6.48262">
        <ele>1630.57</ele>
        <time>2011-02-11T10:11:57Z</time>
      </trkpt>
      <trkpt lat="45.97034" lon="6.48266">
        <ele>1629.569</ele>
        <time>2011-02-11T10:11:59Z</time>
      </trkpt>
      <trkpt lat="45.97041" lon="6.48275">
        <ele>1628.2</ele>
        <time>2011-02-11T10:12:00Z</time>
      </trkpt>
      <trkpt lat="45.97048" lon="6.48283">
        <ele>1626.996</ele>
        <time>2011-02-11T10:12:01Z</time>
      </trkpt>
      <trkpt lat="45.97051" lon="6.48287">
        <ele>1626.317</ele>
        <time>2011-02-11T10:12:03Z</time>
      </trkpt>
      <trkpt lat="45.97056" lon="6.48296">
        <ele>1624.836</ele>
        <time>2011-02-11T10:12:04Z</time>
      </trkpt>
      <trkpt lat="45.97058" lon="6.483">
        <ele>1623.995</ele>
        <time>2011-02-11T10:12:05Z</time>
      </trkpt>
      <trkpt lat="45.97064" lon="6.4831">
        <ele>1621.45</ele>
        <time>2011-02-11T10:12:07Z</time>
      </trkpt>
      <trkpt lat="45.97068" lon="6.48316">
        <ele>1620</ele>
        <time>2011-02-11T10:12:08Z</time>
      </trkpt>
      <trkpt lat="45.97077" lon="6.48326">
        <ele>1616.55</ele>
        <time>2011-02-11T10:12:09Z</time>
      </trkpt>
      <trkpt lat="45.97085" lon="6.48335">
        <ele>1612.77</ele>
        <time>2011-02-11T10:12:12Z</time>
      </trkpt>
      <trkpt lat="45.97092" lon="6.48342">
        <ele>1608.9</ele>
        <time>2011-02-11T10:12:13Z</time>
      </trkpt>
      <trkpt lat="45.97098" lon="6.48347">
        <ele>1605.55</ele>
        <time>2011-02-11T10:12:14Z</time>
      </trkpt>
      <trkpt lat="45.97102" lon="6.48347">
        <ele>1604.32</ele>
        <time>2011-02-11T10:12:15Z</time>
      </trkpt>
      <trkpt lat="45.97106" lon="6.48347">
        <ele>1603.03</ele>
        <time>2011-02-11T10:12:16Z</time>
      </trkpt>
      <trkpt lat="45.97116" lon="6.48342">
        <ele>1600.684</ele>
        <time>2011-02-11T10:12:18Z</time>
      </trkpt>
      <trkpt lat="45.97121" lon="6.48339">
        <ele>1599.527</ele>
        <time>2011-02-11T10:12:19Z</time>
      </trkpt>
      <trkpt lat="45.97125" lon="6.48334">
        <ele>1598.414</ele>
        <time>2011-02-11T10:12:20Z</time>
      </trkpt>
      <trkpt lat="45.97128" lon="6.48329">
        <ele>1597.282</ele>
        <time>2011-02-11T10:12:21Z</time>
      </trkpt>
      <trkpt lat="45.97131" lon="6.48318">
        <ele>1595.036</ele>
        <time>2011-02-11T10:12:23Z</time>
      </trkpt>
      <trkpt lat="45.9713" lon="6.48309">
        <ele>1593.334</ele>
        <time>2011-02-11T10:12:25Z</time>
      </trkpt>
      <trkpt lat="45.97129" lon="6.48304">
        <ele>1592.143</ele>
        <time>2011-02-11T10:12:27Z</time>
      </trkpt>
      <trkpt lat="45.97129" lon="6.483">
        <ele>1591.1</ele>
        <time>2011-02-11T10:12:29Z</time>
      </trkpt>
      <trkpt lat="45.97129" lon="6.483">
        <ele>1590.75</ele>
        <time>2011-02-11T10:12:30Z</time>
      </trkpt>
      <trkpt lat="45.97129" lon="6.483">
        <ele>1590.333</ele>
        <time>2011-02-11T10:12:31Z</time>
      </trkpt>
      <trkpt lat="45.97129" lon="6.483">
        <ele>1589.5</ele>
        <time>2011-02-11T10:12:33Z</time>
      </trkpt>
      <trkpt lat="45.97129" lon="6.483">
        <ele>1589.5</ele>
        <time>2011-02-11T10:12:35Z</time>
      </trkpt>
      <trkpt lat="45.97129" lon="6.483">
        <ele>1589.5</ele>
        <time>2011-02-11T10:12:38Z</time>
      </trkpt>
      <trkpt lat="45.9717" lon="6.48168">
        <ele>1567.85</ele>
        <time>2011-02-11T10:12:39Z</time>
      </trkpt>
      <trkpt lat="45.97174" lon="6.48161">
        <ele>1566.55</ele>
        <time>2011-02-11T10:12:42Z</time>
      </trkpt>
      <trkpt lat="45.97177" lon="6.48152">
        <ele>1565.617</ele>
        <time>2011-02-11T10:12:43Z</time>
      </trkpt>
      <trkpt lat="45.97183" lon="6.4814">
        <ele>1563.263</ele>
        <time>2011-02-11T10:12:44Z</time>
      </trkpt>
      <trkpt lat="45.9719" lon="6.48128">
        <ele>1560.54</ele>
        <time>2011-02-11T10:12:47Z</time>
      </trkpt>
      <trkpt lat="45.97197" lon="6.4812">
        <ele>1556.66</ele>
        <time>2011-02-11T10:12:48Z</time>
      </trkpt>
      <trkpt lat="45.97201" lon="6.48111">
        <ele>1552.15</ele>
        <time>2011-02-11T10:12:49Z</time>
      </trkpt>
      <trkpt lat="45.97204" lon="6.48101">
        <ele>1547.23</ele>
        <time>2011-02-11T10:12:52Z</time>
      </trkpt>
      <trkpt lat="45.97208" lon="6.48092">
        <ele>1543.6</ele>
        <time>2011-02-11T10:12:53Z</time>
      </trkpt>
      <trkpt lat="45.97214" lon="6.48077">
        <ele>1540.39</ele>
        <time>2011-02-11T10:12:55Z</time>
      </trkpt>
      <trkpt lat="45.9722" lon="6.48063">
        <ele>1537</ele>
        <time>2011-02-11T10:12:56Z</time>
      </trkpt>
      <trkpt lat="45.97223" lon="6.48054">
        <ele>1535.54</ele>
        <time>2011-02-11T10:12:57Z</time>
      </trkpt>
      <trkpt lat="45.97226" lon="6.48034">
        <ele>1532.4</ele>
        <time>2011-02-11T10:12:58Z</time>
      </trkpt>
      <trkpt lat="45.97227" lon="6.48022">
        <ele>1530.775</ele>
        <time>2011-02-11T10:13:00Z</time>
      </trkpt>
      <trkpt lat="45.97227" lon="6.4801">
        <ele>1529</ele>
        <time>2011-02-11T10:13:02Z</time>
      </trkpt>
      <trkpt lat="45.97227" lon="6.4801">
        <ele>1528.36</ele>
        <time>2011-02-11T10:13:03Z</time>
      </trkpt>
      <trkpt lat="45.97227" lon="6.4801">
        <ele>1527.4</ele>
        <time>2011-02-11T10:13:04Z</time>
      </trkpt>
      <trkpt lat="45.97227" lon="6.4801">
        <ele>1524.7</ele>
        <time>2011-02-11T10:13:06Z</time>
      </trkpt>
      <trkpt lat="45.97227" lon="6.4801">
        <ele>1523.7</ele>
        <time>2011-02-11T10:13:07Z</time>
      </trkpt>
      <trkpt lat="45.97227" lon="6.4801">
        <ele>1523.7</ele>
        <time>2011-02-11T10:13:09Z</time>
      </trkpt>
      <trkpt lat="45.97227" lon="6.4801">
        <ele>1523.7</ele>
        <time>2011-02-11T10:13:10Z</time>
      </trkpt>
      <trkpt lat="45.97227" lon="6.4801">
        <ele>1523.7</ele>
        <time>2011-02-11T10:13:11Z</time>
      </trkpt>
      <trkpt lat="45.97227" lon="6.4801">
        <ele>1523.7</ele>
        <time>2011-02-11T10:13:13Z</time>
      </trkpt>
      <trkpt lat="45.97227" lon="6.4801">
        <ele>1523.7</ele>
        <time>2011-02-11T10:13:14Z</time>
      </trkpt>
      <trkpt lat="45.97281" lon="6.47794">
        <ele>1487.65</ele>
        <time>2011-02-11T10:13:16Z</time>
      </trkpt>
      <trkpt lat="45.97286" lon="6.47784">
        <ele>1485.275</ele>
        <time>2011-02-11T10:13:18Z</time>
      </trkpt>
      <trkpt lat="45.97288" lon="6.47778">
        <ele>1484.46</ele>
        <time>2011-02-11T10:13:19Z</time>
      </trkpt>
      <trkpt lat="45.97299" lon="6.47759">
        <ele>1483.686</ele>
        <time>2011-02-11T10:13:22Z</time>
      </trkpt>
      <trkpt lat="45.9731" lon="6.47748">
        <ele>1483.133</ele>
        <time>2011-02-11T10:13:23Z</time>
      </trkpt>
      <trkpt lat="45.97324" lon="6.47745">
        <ele>1480.92</ele>
        <time>2011-02-11T10:13:24Z</time>
      </trkpt>
      <trkpt lat="45.97331" lon="6.47746">
        <ele>1479.65</ele>
        <time>2011-02-11T10:13:25Z</time>
      </trkpt>
      <trkpt lat="45.97345" lon="6.4775">
        <ele>1477.11</ele>
        <time>2011-02-11T10:13:27Z</time>
      </trkpt>
      <trkpt lat="45.97355" lon="6.47759">
        <ele>1474.2</ele>
        <time>2011-02-11T10:13:29Z</time>
      </trkpt>
      <trkpt lat="45.97359" lon="6.47764">
        <ele>1472.61</ele>
        <time>2011-02-11T10:13:31Z</time>
      </trkpt>
      <trkpt lat="45.97366" lon="6.47773">
        <ele>1468.4</ele>
        <time>2011-02-11T10:13:32Z</time>
      </trkpt>
      <trkpt lat="45.97364" lon="6.47778">
        <ele>1465.156</ele>
        <time>2011-02-11T10:13:34Z</time>
      </trkpt>
      <trkpt lat="45.97359" lon="6.47782">
        <ele>1462.9</ele>
        <time>2011-02-11T10:13:36Z</time>
      </trkpt>
      <trkpt lat="45.97358" lon="6.47782">
        <ele>1461.55</ele>
        <time>2011-02-11T10:13:37Z</time>
      </trkpt>
      <trkpt lat="45.97356" lon="6.47782">
        <ele>1459.013</ele>
        <time>2011-02-11T10:13:39Z</time>
      </trkpt>
      <trkpt lat="45.97356" lon="6.47782">
        <ele>1457.725</ele>
        <time>2011-02-11T10:13:40Z</time>
      </trkpt>
      <trkpt lat="45.97355" lon="6.47782">
        <ele>1457.05</ele>
        <time>2011-02-11T10:13:41Z</time>
      </trkpt>
      <trkpt lat="45.97355" lon="6.47782">
        <ele>1456.933</ele>
        <time>2011-02-11T10:13:42Z</time>
      </trkpt>
      <trkpt lat="45.97355" lon="6.47782">
        <ele>1456.533</ele>
        <time>2011-02-11T10:13:43Z</time>
      </trkpt>
      <trkpt lat="45.97354" lon="6.47782">
        <ele>1456.144</ele>
        <time>2011-02-11T10:13:44Z</time>
      </trkpt>
      <trkpt lat="45.97354" lon="6.47782">
        <ele>1455.99</ele>
        <time>2011-02-11T10:13:46Z</time>
      </trkpt>
    </trkseg>
  </trk>
</gpx>